createdAt,value
2023-05-14T00:00:28.018Z,99.84
2023-05-14T00:01:28.360Z,99.73
2023-05-14T00:02:28.109Z,99.73
2023-05-14T00:03:28.204Z,99.52
2023-05-14T00:04:28.054Z,98.91
2023-05-14T00:05:28.443Z,98.91
2023-05-14T00:06:28.037Z,99.16
2023-05-14T00:07:28.043Z,99.68
2023-05-14T00:08:28.181Z,99.47
2023-05-14T00:09:28.028Z,99.37
2023-05-14T00:10:28.508Z,99.47
2023-05-14T00:11:28.162Z,99.57
2023-05-14T00:12:28.070Z,99.72
2023-05-14T00:13:28.582Z,99.82
2023-05-14T00:14:28.178Z,99.99
2023-05-14T00:15:28.218Z,99.99
2023-05-14T00:16:28.264Z,99.99
2023-05-14T00:17:28.029Z,99.99
2023-05-14T00:18:28.225Z,99.99
2023-05-14T00:19:28.332Z,99.68
2023-05-14T00:20:28.410Z,99.78
2023-05-14T00:21:28.469Z,99.88
2023-05-14T00:22:28.491Z,99.99
2023-05-14T00:23:28.373Z,99.99
2023-05-14T00:24:28.893Z,99.99
2023-05-14T00:25:27.967Z,99.99
2023-05-14T00:26:28.904Z,99.99
2023-05-14T00:27:27.860Z,99.99
2023-05-14T00:28:28.388Z,99.99
2023-05-14T00:29:28.390Z,99.99
2023-05-14T00:30:28.052Z,99.99
2023-05-14T00:31:27.963Z,99.99
2023-05-14T00:32:28.124Z,99.99
2023-05-14T00:33:28.978Z,99.99
2023-05-14T00:34:27.861Z,99.99
2023-05-14T00:35:28.520Z,99.99
2023-05-14T00:36:27.784Z,99.99
2023-05-14T00:37:28.452Z,99.99
2023-05-14T00:38:28.282Z,99.99
2023-05-14T00:39:27.814Z,99.99
2023-05-14T00:40:27.835Z,99.99
2023-05-14T00:41:27.741Z,99.99
2023-05-14T00:42:27.744Z,99.99
2023-05-14T00:43:27.732Z,99.99
2023-05-14T00:44:27.771Z,99.99
2023-05-14T00:45:27.869Z,99.99
2023-05-14T00:46:27.749Z,99.99
2023-05-14T00:47:27.865Z,99.99
2023-05-14T00:48:27.768Z,99.99
2023-05-14T00:49:27.797Z,99.99
2023-05-14T00:50:27.873Z,99.99
2023-05-14T00:51:27.920Z,99.99
2023-05-14T00:52:27.702Z,99.99
2023-05-14T00:53:28.073Z,99.99
2023-05-14T00:54:28.153Z,99.99
2023-05-14T00:55:27.914Z,99.99
2023-05-14T00:56:27.649Z,99.99
2023-05-14T00:57:28.333Z,99.99
2023-05-14T00:58:28.369Z,99.99
2023-05-14T00:59:28.458Z,99.99
2023-05-14T01:00:28.004Z,99.99
2023-05-14T01:01:28.247Z,99.99
2023-05-14T01:02:27.949Z,99.99
2023-05-14T01:03:28.723Z,99.99
2023-05-14T01:04:27.604Z,99.99
2023-05-14T01:05:27.641Z,99.99
2023-05-14T01:06:27.859Z,99.99
2023-05-14T01:07:28.004Z,99.99
2023-05-14T01:08:28.115Z,99.99
2023-05-14T01:09:27.584Z,99.99
2023-05-14T01:10:28.238Z,99.99
2023-05-14T01:11:28.356Z,99.99
2023-05-14T01:12:28.513Z,99.99
2023-05-14T01:13:28.046Z,99.99
2023-05-14T01:14:27.678Z,99.99
2023-05-14T01:15:28.202Z,99.99
2023-05-14T01:16:27.672Z,99.99
2023-05-14T01:17:27.549Z,99.99
2023-05-14T01:18:27.615Z,99.99
2023-05-14T01:19:27.672Z,99.99
2023-05-14T01:20:27.707Z,99.99
2023-05-14T01:21:27.743Z,99.99
2023-05-14T01:22:27.835Z,99.99
2023-05-14T01:23:27.498Z,99.99
2023-05-14T01:24:27.626Z,99.99
2023-05-14T01:25:28.014Z,99.99
2023-05-14T01:26:28.090Z,99.99
2023-05-14T01:27:28.162Z,99.99
2023-05-14T01:28:27.560Z,99.99
2023-05-14T01:29:27.587Z,99.99
2023-05-14T01:30:28.374Z,99.99
2023-05-14T01:31:27.408Z,99.99
2023-05-14T01:32:27.700Z,99.99
2023-05-14T01:33:27.565Z,99.99
2023-05-14T01:34:27.419Z,99.99
2023-05-14T01:35:27.485Z,99.99
2023-05-14T01:36:27.541Z,99.99
2023-05-14T01:37:27.370Z,99.99
2023-05-14T01:38:27.640Z,99.99
2023-05-14T01:39:27.690Z,99.99
2023-05-14T01:40:27.740Z,99.99
2023-05-14T01:41:27.337Z,99.99
2023-05-14T01:42:27.566Z,99.99
2023-05-14T01:43:27.489Z,99.99
2023-05-14T01:44:27.328Z,99.99
2023-05-14T01:45:27.384Z,99.99
2023-05-14T01:46:27.476Z,99.99
2023-05-14T01:47:27.518Z,99.99
2023-05-14T01:48:27.577Z,99.99
2023-05-14T01:49:27.650Z,99.99
2023-05-14T01:50:27.269Z,99.99
2023-05-14T01:51:27.354Z,99.99
2023-05-14T01:52:27.265Z,99.99
2023-05-14T01:53:27.898Z,99.99
2023-05-14T01:54:27.936Z,99.99
2023-05-14T01:55:27.464Z,99.99
2023-05-14T01:56:27.291Z,99.99
2023-05-14T01:57:27.280Z,99.99
2023-05-14T01:58:27.747Z,99.99
2023-05-14T01:59:27.350Z,99.99
2023-05-14T02:00:27.929Z,99.99
2023-05-14T02:01:27.296Z,99.99
2023-05-14T02:02:27.327Z,99.99
2023-05-14T02:03:27.964Z,99.99
2023-05-14T02:04:27.682Z,99.99
2023-05-14T02:05:27.921Z,99.99
2023-05-14T02:06:28.184Z,99.99
2023-05-14T02:07:28.085Z,99.99
2023-05-14T02:08:27.238Z,99.99
2023-05-14T02:09:27.741Z,99.99
2023-05-14T02:10:28.058Z,99.99
2023-05-14T02:11:27.956Z,99.99
2023-05-14T02:12:28.017Z,99.99
2023-05-14T02:13:27.094Z,99.99
2023-05-14T02:14:27.122Z,99.99
2023-05-14T02:15:27.163Z,99.99
2023-05-14T02:16:27.282Z,99.99
2023-05-14T02:17:27.317Z,99.99
2023-05-14T02:18:27.339Z,99.99
2023-05-14T02:19:27.384Z,99.99
2023-05-14T02:20:27.061Z,99.99
2023-05-14T02:21:27.054Z,99.99
2023-05-14T02:22:27.045Z,99.99
2023-05-14T02:23:37.829Z,99.99
2023-05-14T02:24:27.067Z,99.99
2023-05-14T02:25:27.038Z,99.99
2023-05-14T02:26:27.085Z,99.99
2023-05-14T02:27:27.054Z,99.99
2023-05-14T02:28:27.127Z,99.99
2023-05-14T02:29:27.146Z,99.99
2023-05-14T02:30:27.131Z,99.99
2023-05-14T02:31:27.090Z,99.99
2023-05-14T02:32:27.219Z,99.99
2023-05-14T02:33:27.158Z,99.99
2023-05-14T02:34:27.136Z,99.99
2023-05-14T02:35:27.168Z,99.99
2023-05-14T02:36:27.164Z,99.99
2023-05-14T02:37:26.951Z,99.99
2023-05-14T02:38:27.194Z,99.99
2023-05-14T02:39:26.935Z,99.99
2023-05-14T02:40:27.207Z,99.99
2023-05-14T02:41:27.220Z,99.99
2023-05-14T02:42:26.990Z,99.99
2023-05-14T02:43:27.237Z,99.99
2023-05-14T02:44:27.003Z,99.99
2023-05-14T02:45:27.006Z,99.99
2023-05-14T02:46:27.027Z,99.99
2023-05-14T02:47:26.946Z,99.99
2023-05-14T02:48:27.059Z,99.99
2023-05-14T02:49:27.022Z,99.99
2023-05-14T02:50:26.974Z,99.99
2023-05-14T02:51:27.218Z,99.99
2023-05-14T02:52:26.869Z,99.99
2023-05-14T02:53:26.844Z,99.99
2023-05-14T02:54:27.357Z,99.99
2023-05-14T02:55:27.374Z,99.99
2023-05-14T02:56:27.183Z,99.99
2023-05-14T02:57:27.407Z,99.99
2023-05-14T02:58:28.458Z,99.99
2023-05-14T02:59:27.422Z,99.99
2023-05-14T03:00:27.178Z,99.99
2023-05-14T03:01:27.392Z,99.99
2023-05-14T03:02:27.211Z,99.99
2023-05-14T03:03:27.505Z,99.99
2023-05-14T03:04:27.480Z,99.99
2023-05-14T03:05:26.776Z,99.99
2023-05-14T03:06:27.488Z,99.99
2023-05-14T03:07:26.801Z,99.99
2023-05-14T03:08:27.232Z,99.99
2023-05-14T03:09:27.522Z,99.99
2023-05-14T03:10:27.374Z,99.99
2023-05-14T03:11:27.497Z,99.99
2023-05-14T03:12:26.770Z,99.99
2023-05-14T03:13:26.730Z,99.99
2023-05-14T03:14:26.833Z,99.99
2023-05-14T03:15:26.833Z,99.99
2023-05-14T03:16:26.938Z,99.99
2023-05-14T03:17:26.973Z,99.99
2023-05-14T03:18:27.015Z,99.99
2023-05-14T03:19:26.723Z,99.99
2023-05-14T03:20:26.798Z,99.99
2023-05-14T03:21:26.669Z,99.99
2023-05-14T03:22:26.723Z,99.99
2023-05-14T03:23:26.686Z,99.99
2023-05-14T03:24:26.827Z,99.99
2023-05-14T03:25:26.858Z,99.99
2023-05-14T03:26:26.920Z,99.99
2023-05-14T03:27:26.958Z,99.99
2023-05-14T03:28:26.877Z,99.99
2023-05-14T03:29:27.046Z,99.99
2023-05-14T03:30:27.221Z,99.99
2023-05-14T03:31:26.989Z,99.99
2023-05-14T03:32:27.259Z,99.99
2023-05-14T03:33:27.173Z,99.99
2023-05-14T03:34:26.584Z,99.99
2023-05-14T03:35:26.876Z,99.99
2023-05-14T03:36:27.114Z,99.99
2023-05-14T03:37:26.548Z,99.99
2023-05-14T03:38:26.548Z,99.99
2023-05-14T03:39:26.560Z,99.99
2023-05-14T03:40:26.639Z,99.99
2023-05-14T03:41:26.585Z,99.99
2023-05-14T03:42:26.616Z,99.99
2023-05-14T03:43:26.519Z,99.99
2023-05-14T03:44:26.532Z,99.99
2023-05-14T03:45:26.597Z,99.99
2023-05-14T03:46:26.670Z,99.99
2023-05-14T03:47:26.727Z,99.99
2023-05-14T03:48:26.771Z,99.99
2023-05-14T03:49:26.700Z,99.99
2023-05-14T03:50:26.727Z,99.99
2023-05-14T03:51:26.511Z,99.99
2023-05-14T03:52:26.500Z,99.99
2023-05-14T03:53:26.461Z,99.99
2023-05-14T03:54:26.741Z,99.99
2023-05-14T03:55:26.773Z,99.99
2023-05-14T03:56:27.942Z,99.99
2023-05-14T03:57:26.799Z,99.99
2023-05-14T03:58:26.550Z,99.99
2023-05-14T03:59:26.706Z,99.99
2023-05-14T04:00:27.478Z,99.99
2023-05-14T04:01:26.788Z,99.99
2023-05-14T04:02:27.966Z,99.99
2023-05-14T04:03:26.433Z,99.99
2023-05-14T04:04:26.453Z,99.99
2023-05-14T04:05:26.381Z,99.99
2023-05-14T04:06:26.440Z,99.99
2023-05-14T04:07:26.487Z,99.99
2023-05-14T04:08:26.412Z,99.99
2023-05-14T04:09:26.330Z,99.99
2023-05-14T04:10:26.433Z,99.99
2023-05-14T04:11:26.346Z,99.99
2023-05-14T04:12:26.353Z,99.99
2023-05-14T04:13:26.350Z,99.99
2023-05-14T04:14:26.307Z,99.99
2023-05-14T04:15:26.372Z,99.99
2023-05-14T04:16:26.466Z,99.99
2023-05-14T04:17:26.485Z,99.99
2023-05-14T04:18:26.622Z,99.99
2023-05-14T04:19:26.274Z,99.99
2023-05-14T04:20:26.626Z,99.99
2023-05-14T04:21:26.268Z,99.99
2023-05-14T04:22:26.274Z,99.99
2023-05-14T04:23:26.287Z,99.99
2023-05-14T04:24:26.304Z,99.99
2023-05-14T04:25:26.312Z,99.99
2023-05-14T04:26:26.246Z,99.99
2023-05-14T04:27:26.239Z,99.99
2023-05-14T04:28:26.246Z,99.99
2023-05-14T04:29:26.381Z,99.99
2023-05-14T04:30:26.425Z,99.99
2023-05-14T04:31:26.414Z,99.99
2023-05-14T04:32:26.424Z,99.99
2023-05-14T04:33:26.255Z,99.99
2023-05-14T04:34:26.445Z,99.99
2023-05-14T04:35:26.445Z,99.99
2023-05-14T04:36:26.233Z,99.99
2023-05-14T04:37:26.493Z,99.99
2023-05-14T04:38:26.138Z,99.99
2023-05-14T04:39:26.133Z,99.99
2023-05-14T04:40:26.462Z,99.99
2023-05-14T04:41:26.231Z,99.99
2023-05-14T04:42:26.271Z,99.99
2023-05-14T04:43:26.116Z,99.99
2023-05-14T04:44:26.277Z,99.99
2023-05-14T04:45:26.439Z,99.99
2023-05-14T04:46:26.517Z,99.99
2023-05-14T04:47:26.598Z,99.99
2023-05-14T04:48:26.640Z,99.99
2023-05-14T04:49:26.184Z,99.99
2023-05-14T04:50:26.646Z,99.99
2023-05-14T04:51:26.646Z,99.99
2023-05-14T04:52:26.672Z,99.99
2023-05-14T04:53:26.675Z,99.99
2023-05-14T04:54:26.824Z,99.99
2023-05-14T04:55:26.708Z,99.99
2023-05-14T04:56:26.154Z,99.99
2023-05-14T04:57:26.263Z,99.99
2023-05-14T04:58:26.147Z,99.99
2023-05-14T04:59:26.765Z,99.99
2023-05-14T05:00:26.741Z,99.99
2023-05-14T05:01:26.028Z,99.99
2023-05-14T05:02:26.142Z,99.99
2023-05-14T05:03:26.602Z,99.99
2023-05-14T05:04:26.827Z,99.99
2023-05-14T05:05:26.107Z,99.99
2023-05-14T05:06:25.976Z,99.99
2023-05-14T05:07:26.017Z,99.99
2023-05-14T05:08:26.063Z,99.99
2023-05-14T05:09:26.114Z,99.99
2023-05-14T05:10:26.226Z,99.99
2023-05-14T05:11:25.955Z,99.96
2023-05-14T05:12:25.979Z,99.71
2023-05-14T05:13:26.024Z,99.41
2023-05-14T05:14:26.083Z,99.20
2023-05-14T05:15:26.654Z,98.79
2023-05-14T05:16:26.165Z,98.44
2023-05-14T05:17:26.260Z,98.44
2023-05-14T05:18:26.372Z,98.33
2023-05-14T05:19:35.851Z,97.78
2023-05-14T05:20:26.430Z,97.37
2023-05-14T05:21:26.470Z,97.16
2023-05-14T05:22:26.554Z,96.55
2023-05-14T05:23:26.292Z,96.41
2023-05-14T05:24:26.665Z,96.51
2023-05-14T05:25:25.824Z,96.81
2023-05-14T05:26:25.836Z,96.81
2023-05-14T05:27:25.867Z,96.51
2023-05-14T05:28:25.871Z,96.30
2023-05-14T05:29:25.870Z,96.05
2023-05-14T05:30:26.058Z,96.05
2023-05-14T05:31:25.926Z,96.05
2023-05-14T05:32:25.895Z,95.54
2023-05-14T05:33:25.902Z,95.09
2023-05-14T05:34:25.888Z,94.98
2023-05-14T05:35:26.328Z,94.94
2023-05-14T05:36:26.299Z,94.43
2023-05-14T05:37:25.760Z,94.29
2023-05-14T05:38:25.754Z,94.18
2023-05-14T05:39:25.800Z,94.04
2023-05-14T05:40:25.928Z,93.22
2023-05-14T05:41:25.731Z,92.50
2023-05-14T05:42:25.728Z,92.67
2023-05-14T05:43:25.770Z,92.97
2023-05-14T05:44:25.735Z,92.57
2023-05-14T05:45:25.901Z,91.85
2023-05-14T05:46:25.826Z,91.91
2023-05-14T05:47:26.060Z,91.71
2023-05-14T05:48:26.136Z,90.95
2023-05-14T05:49:26.241Z,90.03
2023-05-14T05:50:26.118Z,89.89
2023-05-14T05:51:25.661Z,89.79
2023-05-14T05:52:25.689Z,89.34
2023-05-14T05:53:26.504Z,89.54
2023-05-14T05:54:26.045Z,89.24
2023-05-14T05:55:26.157Z,88.79
2023-05-14T05:56:25.605Z,88.18
2023-05-14T05:57:26.380Z,87.87
2023-05-14T05:58:25.621Z,87.06
2023-05-14T05:59:25.640Z,86.71
2023-05-14T06:00:25.979Z,87.93
2023-05-14T06:01:25.691Z,87.43
2023-05-14T06:02:25.825Z,87.53
2023-05-14T06:03:25.704Z,87.79
2023-05-14T06:04:25.857Z,86.47
2023-05-14T06:05:25.736Z,86.07
2023-05-14T06:06:25.951Z,85.96
2023-05-14T06:07:25.703Z,87.85
2023-05-14T06:08:25.557Z,87.04
2023-05-14T06:09:25.564Z,86.94
2023-05-14T06:10:25.789Z,86.49
2023-05-14T06:11:25.682Z,85.78
2023-05-14T06:12:25.815Z,85.07
2023-05-14T06:13:25.806Z,85.68
2023-05-14T06:14:25.857Z,85.47
2023-05-14T06:15:25.912Z,84.93
2023-05-14T06:16:25.996Z,85.13
2023-05-14T06:17:25.693Z,84.48
2023-05-14T06:18:25.940Z,84.38
2023-05-14T06:19:26.134Z,84.04
2023-05-14T06:20:26.503Z,84.75
2023-05-14T06:21:26.142Z,84.34
2023-05-14T06:22:25.758Z,83.49
2023-05-14T06:23:25.443Z,84.34
2023-05-14T06:24:25.506Z,84.64
2023-05-14T06:25:26.166Z,84.44
2023-05-14T06:26:26.206Z,83.12
2023-05-14T06:27:25.519Z,82.21
2023-05-14T06:28:25.417Z,82.82
2023-05-14T06:29:25.421Z,83.53
2023-05-14T06:30:25.749Z,83.69
2023-05-14T06:31:25.468Z,84.55
2023-05-14T06:32:26.210Z,84.44
2023-05-14T06:33:25.437Z,85.66
2023-05-14T06:34:25.446Z,85.76
2023-05-14T06:35:25.449Z,84.75
2023-05-14T06:36:25.458Z,83.98
2023-05-14T06:37:25.389Z,84.58
2023-05-14T06:38:25.345Z,84.58
2023-05-14T06:39:25.366Z,84.52
2023-05-14T06:40:25.574Z,85.53
2023-05-14T06:41:25.413Z,86.05
2023-05-14T06:42:25.312Z,86.45
2023-05-14T06:43:25.301Z,86.69
2023-05-14T06:44:25.450Z,87.30
2023-05-14T06:45:25.314Z,87.71
2023-05-14T06:46:25.473Z,88.12
2023-05-14T06:47:25.361Z,88.36
2023-05-14T06:48:25.569Z,89.28
2023-05-14T06:49:25.496Z,89.37
2023-05-14T06:50:25.765Z,90.09
2023-05-14T06:51:25.285Z,90.29
2023-05-14T06:52:25.236Z,90.44
2023-05-14T06:53:25.243Z,90.84
2023-05-14T06:54:25.285Z,91.25
2023-05-14T06:55:25.245Z,91.55
2023-05-14T06:56:25.252Z,91.75
2023-05-14T06:57:25.256Z,91.86
2023-05-14T06:58:25.208Z,92.26
2023-05-14T06:59:25.201Z,92.57
2023-05-14T07:00:25.676Z,92.36
2023-05-14T07:01:25.344Z,92.06
2023-05-14T07:02:25.252Z,92.57
2023-05-14T07:03:25.334Z,92.87
2023-05-14T07:04:25.370Z,92.87
2023-05-14T07:05:25.233Z,92.87
2023-05-14T07:06:25.248Z,92.47
2023-05-14T07:07:25.392Z,91.91
2023-05-14T07:08:25.121Z,92.02
2023-05-14T07:09:25.478Z,92.12
2023-05-14T07:10:25.639Z,92.32
2023-05-14T07:11:25.120Z,92.22
2023-05-14T07:12:25.132Z,92.22
2023-05-14T07:13:27.641Z,91.51
2023-05-14T07:14:25.116Z,90.25
2023-05-14T07:15:25.142Z,89.74
2023-05-14T07:16:25.166Z,89.39
2023-05-14T07:17:25.354Z,89.70
2023-05-14T07:18:25.392Z,89.35
2023-05-14T07:19:25.426Z,88.90
2023-05-14T07:20:25.645Z,89.11
2023-05-14T07:21:25.553Z,88.56
2023-05-14T07:22:25.029Z,88.86
2023-05-14T07:23:25.601Z,87.85
2023-05-14T07:24:25.585Z,86.33
2023-05-14T07:25:25.587Z,85.68
2023-05-14T07:26:25.587Z,85.48
2023-05-14T07:27:25.618Z,85.99
2023-05-14T07:28:25.609Z,86.59
2023-05-14T07:29:25.203Z,86.08
2023-05-14T07:30:25.846Z,86.79
2023-05-14T07:31:25.608Z,86.29
2023-05-14T07:32:25.498Z,85.68
2023-05-14T07:33:25.011Z,85.78
2023-05-14T07:34:25.026Z,86.59
2023-05-14T07:35:25.230Z,86.79
2023-05-14T07:36:24.976Z,86.69
2023-05-14T07:37:24.930Z,86.25
2023-05-14T07:38:25.048Z,86.96
2023-05-14T07:39:24.984Z,86.51
2023-05-14T07:40:25.519Z,86.21
2023-05-14T07:41:25.073Z,85.25
2023-05-14T07:42:35.303Z,84.85
2023-05-14T07:43:25.225Z,84.71
2023-05-14T07:44:25.307Z,82.79
2023-05-14T07:45:24.913Z,83.29
2023-05-14T07:46:24.926Z,81.94
2023-05-14T07:47:25.002Z,82.10
2023-05-14T07:48:24.931Z,82.10
2023-05-14T07:49:24.853Z,81.67
2023-05-14T07:50:25.241Z,81.67
2023-05-14T07:51:24.928Z,80.85
2023-05-14T07:52:25.044Z,80.92
2023-05-14T07:53:24.942Z,79.91
2023-05-14T07:54:24.962Z,80.38
2023-05-14T07:55:24.953Z,79.33
2023-05-14T07:56:25.011Z,78.42
2023-05-14T07:57:24.825Z,78.12
2023-05-14T07:58:24.983Z,78.02
2023-05-14T07:59:24.981Z,77.62
2023-05-14T08:00:25.254Z,78.72
2023-05-14T08:01:24.827Z,78.28
2023-05-14T08:02:24.842Z,78.69
2023-05-14T08:03:25.220Z,78.28
2023-05-14T08:04:25.146Z,77.48
2023-05-14T08:05:25.080Z,78.08
2023-05-14T08:06:24.757Z,78.63
2023-05-14T08:07:24.714Z,80.33
2023-05-14T08:08:24.764Z,79.67
2023-05-14T08:09:24.700Z,80.47
2023-05-14T08:10:25.024Z,80.54
2023-05-14T08:11:24.711Z,80.20
2023-05-14T08:12:24.694Z,78.99
2023-05-14T08:13:24.713Z,77.95
2023-05-14T08:14:24.989Z,77.75
2023-05-14T08:15:27.549Z,76.57
2023-05-14T08:16:25.168Z,75.73
2023-05-14T08:17:24.922Z,76.74
2023-05-14T08:18:25.242Z,74.93
2023-05-14T08:19:25.290Z,75.53
2023-05-14T08:20:25.868Z,75.70
2023-05-14T08:21:24.790Z,75.46
2023-05-14T08:22:25.487Z,75.29
2023-05-14T08:23:24.623Z,75.35
2023-05-14T08:24:24.741Z,76.06
2023-05-14T08:25:25.360Z,76.12
2023-05-14T08:26:24.616Z,74.92
2023-05-14T08:27:24.637Z,73.11
2023-05-14T08:28:24.572Z,73.21
2023-05-14T08:29:24.640Z,74.11
2023-05-14T08:30:24.876Z,74.32
2023-05-14T08:31:24.658Z,73.65
2023-05-14T08:32:24.658Z,72.64
2023-05-14T08:33:24.601Z,73.41
2023-05-14T08:34:24.602Z,73.51
2023-05-14T08:35:24.644Z,72.57
2023-05-14T08:36:24.602Z,71.36
2023-05-14T08:37:24.622Z,71.43
2023-05-14T08:38:24.593Z,71.70
2023-05-14T08:39:24.524Z,71.60
2023-05-14T08:40:24.709Z,68.15
2023-05-14T08:41:24.525Z,67.75
2023-05-14T08:42:24.532Z,68.15
2023-05-14T08:43:24.676Z,66.44
2023-05-14T08:44:24.547Z,64.34
2023-05-14T08:45:24.549Z,63.31
2023-05-14T08:46:24.697Z,64.91
2023-05-14T08:47:24.516Z,63.37
2023-05-14T08:48:24.575Z,61.77
2023-05-14T08:49:24.787Z,61.14
2023-05-14T08:50:25.175Z,61.64
2023-05-14T08:51:24.714Z,61.57
2023-05-14T08:52:24.806Z,61.24
2023-05-14T08:53:24.825Z,61.94
2023-05-14T08:54:24.847Z,61.14
2023-05-14T08:55:24.408Z,60.44
2023-05-14T08:56:24.620Z,61.36
2023-05-14T08:57:24.418Z,61.44
2023-05-14T08:58:24.911Z,61.71
2023-05-14T08:59:24.899Z,62.94
2023-05-14T09:00:24.869Z,62.31
2023-05-14T09:01:24.642Z,63.21
2023-05-14T09:02:24.537Z,61.94
2023-05-14T09:03:24.975Z,61.41
2023-05-14T09:04:24.967Z,60.61
2023-05-14T09:05:24.496Z,61.91
2023-05-14T09:06:24.994Z,61.31
2023-05-14T09:07:24.421Z,62.88
2023-05-14T09:08:24.323Z,61.78
2023-05-14T09:09:24.328Z,61.78
2023-05-14T09:10:24.765Z,60.98
2023-05-14T09:11:24.481Z,62.98
2023-05-14T09:12:24.557Z,62.88
2023-05-14T09:13:25.807Z,61.68
2023-05-14T09:14:24.670Z,62.38
2023-05-14T09:15:24.340Z,59.08
2023-05-14T09:16:24.849Z,59.08
2023-05-14T09:17:24.330Z,58.65
2023-05-14T09:18:24.979Z,58.95
2023-05-14T09:19:24.965Z,57.75
2023-05-14T09:20:25.535Z,58.62
2023-05-14T09:21:24.847Z,57.62
2023-05-14T09:22:24.397Z,57.50
2023-05-14T09:23:24.803Z,56.07
2023-05-14T09:24:24.530Z,56.27
2023-05-14T09:25:25.254Z,55.77
2023-05-14T09:26:24.949Z,57.67
2023-05-14T09:27:24.551Z,57.87
2023-05-14T09:28:24.750Z,56.34
2023-05-14T09:29:24.199Z,55.54
2023-05-14T09:30:25.361Z,57.44
2023-05-14T09:31:24.175Z,55.74
2023-05-14T09:32:24.695Z,55.74
2023-05-14T09:33:24.473Z,53.94
2023-05-14T09:34:24.824Z,53.54
2023-05-14T09:35:25.027Z,54.44
2023-05-14T09:36:24.109Z,54.64
2023-05-14T09:37:24.107Z,53.04
2023-05-14T09:38:24.114Z,53.72
2023-05-14T09:39:24.188Z,52.12
2023-05-14T09:40:24.819Z,51.32
2023-05-14T09:41:24.127Z,53.81
2023-05-14T09:42:24.236Z,55.04
2023-05-14T09:43:24.098Z,53.54
2023-05-14T09:44:24.136Z,52.34
2023-05-14T09:45:24.429Z,50.92
2023-05-14T09:46:24.441Z,50.72
2023-05-14T09:47:24.575Z,51.32
2023-05-14T09:48:24.557Z,53.84
2023-05-14T09:49:24.248Z,52.64
2023-05-14T09:50:24.667Z,52.37
2023-05-14T09:51:24.009Z,51.97
2023-05-14T09:52:23.998Z,52.44
2023-05-14T09:53:24.027Z,51.64
2023-05-14T09:54:24.010Z,52.55
2023-05-14T09:55:23.997Z,53.14
2023-05-14T09:56:23.973Z,52.82
2023-05-14T09:57:23.995Z,52.42
2023-05-14T09:58:24.345Z,51.94
2023-05-14T09:59:24.029Z,53.97
2023-05-14T10:00:24.106Z,53.19
2023-05-14T10:01:24.522Z,55.36
2023-05-14T10:02:24.567Z,53.04
2023-05-14T10:03:24.029Z,53.34
2023-05-14T10:04:23.975Z,53.44
2023-05-14T10:05:23.927Z,53.81
2023-05-14T10:06:23.972Z,53.52
2023-05-14T10:07:24.037Z,52.32
2023-05-14T10:08:23.956Z,52.19
2023-05-14T10:09:23.903Z,51.89
2023-05-14T10:10:24.283Z,53.29
2023-05-14T10:11:23.945Z,51.50
2023-05-14T10:12:24.215Z,51.20
2023-05-14T10:13:24.161Z,53.06
2023-05-14T10:14:24.469Z,51.97
2023-05-14T10:15:24.507Z,52.37
2023-05-14T10:16:24.447Z,53.24
2023-05-14T10:17:24.057Z,53.84
2023-05-14T10:18:24.700Z,51.54
2023-05-14T10:19:24.339Z,52.04
2023-05-14T10:20:24.399Z,51.67
2023-05-14T10:21:24.489Z,54.36
2023-05-14T10:22:23.963Z,55.39
2023-05-14T10:23:24.821Z,54.96
2023-05-14T10:24:24.281Z,52.92
2023-05-14T10:25:24.097Z,54.19
2023-05-14T10:26:24.357Z,53.77
2023-05-14T10:27:24.633Z,51.47
2023-05-14T10:28:23.965Z,52.97
2023-05-14T10:29:24.269Z,53.04
2023-05-14T10:30:24.427Z,50.95
2023-05-14T10:31:24.118Z,48.83
2023-05-14T10:32:23.885Z,51.32
2023-05-14T10:33:23.806Z,54.14
2023-05-14T10:34:23.804Z,53.66
2023-05-14T10:35:23.933Z,53.96
2023-05-14T10:36:23.739Z,55.13
2023-05-14T10:37:23.744Z,52.14
2023-05-14T10:38:23.839Z,51.95
2023-05-14T10:39:23.855Z,52.07
2023-05-14T10:40:24.284Z,51.50
2023-05-14T10:41:23.986Z,52.89
2023-05-14T10:42:23.988Z,51.07
2023-05-14T10:43:23.986Z,51.05
2023-05-14T10:44:24.089Z,52.81
2023-05-14T10:45:24.112Z,50.98
2023-05-14T10:46:23.830Z,48.96
2023-05-14T10:47:23.821Z,49.31
2023-05-14T10:48:23.776Z,49.63
2023-05-14T10:49:36.187Z,50.63
2023-05-14T10:50:24.116Z,50.80
2023-05-14T10:51:23.767Z,48.37
2023-05-14T10:52:23.843Z,47.65
2023-05-14T10:53:23.739Z,49.31
2023-05-14T10:54:23.751Z,51.32
2023-05-14T10:55:23.668Z,51.32
2023-05-14T10:56:23.555Z,50.90
2023-05-14T10:57:23.766Z,50.31
2023-05-14T10:58:23.763Z,49.88
2023-05-14T10:59:23.775Z,51.05
2023-05-14T11:00:24.044Z,52.79
2023-05-14T11:01:23.552Z,53.96
2023-05-14T11:02:23.568Z,52.81
2023-05-14T11:03:23.691Z,51.87
2023-05-14T11:04:23.706Z,50.03
2023-05-14T11:05:23.661Z,48.59
2023-05-14T11:06:23.558Z,48.10
2023-05-14T11:07:23.604Z,48.07
2023-05-14T11:08:26.476Z,47.63
2023-05-14T11:09:23.854Z,46.22
2023-05-14T11:10:24.195Z,46.42
2023-05-14T11:11:23.496Z,48.69
2023-05-14T11:12:23.661Z,45.90
2023-05-14T11:13:23.617Z,47.14
2023-05-14T11:14:23.742Z,48.45
2023-05-14T11:15:23.938Z,48.63
2023-05-14T11:16:24.137Z,44.27
2023-05-14T11:17:23.449Z,45.12
2023-05-14T11:18:23.976Z,44.13
2023-05-14T11:19:23.984Z,44.92
2023-05-14T11:20:23.866Z,44.02
2023-05-14T11:21:23.562Z,44.23
2023-05-14T11:22:23.465Z,43.95
2023-05-14T11:23:23.818Z,43.16
2023-05-14T11:24:23.396Z,42.29
2023-05-14T11:25:23.396Z,43.67
2023-05-14T11:26:23.402Z,45.45
2023-05-14T11:27:23.412Z,44.49
2023-05-14T11:28:23.405Z,46.97
2023-05-14T11:29:23.409Z,47.58
2023-05-14T11:30:23.648Z,47.61
2023-05-14T11:31:23.370Z,46.69
2023-05-14T11:32:23.487Z,44.41
2023-05-14T11:33:23.455Z,44.09
2023-05-14T11:35:49.344Z,42.64
2023-05-14T11:36:49.357Z,42.92
2023-05-14T11:37:49.389Z,43.80
2023-05-14T11:38:49.385Z,45.00
2023-05-14T11:39:49.280Z,46.01
2023-05-14T11:40:49.294Z,45.63
2023-05-14T11:41:49.278Z,44.29
2023-05-14T11:42:49.292Z,46.86
2023-05-14T11:43:49.307Z,45.75
2023-05-14T11:44:49.319Z,43.83
2023-05-14T11:45:49.354Z,45.53
2023-05-14T11:46:49.346Z,43.73
2023-05-14T11:47:49.269Z,42.54
2023-05-14T11:48:49.379Z,41.53
2023-05-14T11:49:49.241Z,41.61
2023-05-14T11:50:49.314Z,42.03
2023-05-14T11:51:49.279Z,44.05
2023-05-14T11:52:49.266Z,42.90
2023-05-14T11:53:49.227Z,42.98
2023-05-14T11:54:49.340Z,42.68
2023-05-14T11:55:49.275Z,42.49
2023-05-14T11:56:49.484Z,42.84
2023-05-14T11:57:49.253Z,42.74
2023-05-14T11:58:49.436Z,43.65
2023-05-14T11:59:49.157Z,43.06
2023-05-14T12:00:49.225Z,40.09
2023-05-14T12:01:50.672Z,40.19
2023-05-14T12:02:49.453Z,41.39
2023-05-14T12:03:49.482Z,43.10
2023-05-14T12:04:49.246Z,42.94
2023-05-14T12:05:49.317Z,43.91
2023-05-14T12:06:49.552Z,42.23
2023-05-14T12:07:49.151Z,40.34
2023-05-14T12:08:49.132Z,40.66
2023-05-14T12:09:49.172Z,40.70
2023-05-14T12:10:49.178Z,41.39
2023-05-14T12:11:49.135Z,42.50
2023-05-14T12:12:49.280Z,40.82
2023-05-14T12:13:49.123Z,42.38
2023-05-14T12:14:49.096Z,40.19
2023-05-14T12:15:49.212Z,41.47
2023-05-14T12:16:49.066Z,40.07
2023-05-14T12:17:49.081Z,40.45
2023-05-14T12:18:49.106Z,41.33
2023-05-14T12:19:49.073Z,39.85
2023-05-14T12:20:49.188Z,40.45
2023-05-14T12:21:49.197Z,41.33
2023-05-14T12:22:49.152Z,42.14
2023-05-14T12:23:49.018Z,42.66
2023-05-14T12:24:49.080Z,40.01
2023-05-14T12:25:49.207Z,41.69
2023-05-14T12:26:49.217Z,41.08
2023-05-14T12:27:49.251Z,40.66
2023-05-14T12:28:49.198Z,43.16
2023-05-14T12:29:49.227Z,42.17
2023-05-14T12:30:49.214Z,41.28
2023-05-14T12:31:49.106Z,40.96
2023-05-14T12:32:49.202Z,43.77
2023-05-14T12:33:49.096Z,42.88
2023-05-14T12:34:49.142Z,41.69
2023-05-14T12:35:49.070Z,42.58
2023-05-14T12:36:49.098Z,42.66
2023-05-14T12:37:49.225Z,44.46
2023-05-14T12:38:49.155Z,42.58
2023-05-14T12:39:48.994Z,42.76
2023-05-14T12:40:49.231Z,42.66
2023-05-14T12:41:49.380Z,43.85
2023-05-14T12:42:49.199Z,44.27
2023-05-14T12:43:48.908Z,43.49
2023-05-14T12:44:49.405Z,43.79
2023-05-14T12:45:48.898Z,43.82
2023-05-14T12:46:49.493Z,45.45
2023-05-14T12:47:49.536Z,46.88
2023-05-14T12:48:51.129Z,47.08
2023-05-14T12:49:48.850Z,47.05
2023-05-14T12:50:48.847Z,45.76
2023-05-14T12:51:51.192Z,45.56
2023-05-14T12:52:48.872Z,45.98
2023-05-14T12:53:48.843Z,45.96